Time;durP1;ratioP1;P1;durP2;ratioP2;P2;SDS_P1;SDS_P2;PMS_P1;PMS_P2;Temp;Humidity;BMP_temperature;BMP_pressure;BME280_temperature;BME280_humidity;BME280_pressure;Samples;Min_cycle;Max_cycle;Signal;HPM_P1;HPM_P2
2022/12/11 00:02:00;;;;;;;12.40;5.93;;;-3.20;99.90;;;;;;5005913;28;20211;-67
2022/12/11 00:04:26;;;;;;;7.57;5.40;;;-3.30;99.90;;;;;;5006979;28;20469;-67
2022/12/11 00:06:52;;;;;;;13.20;6.60;;;-3.30;99.90;;;;;;5010880;28;20589;-67
2022/12/11 00:09:19;;;;;;;12.83;5.87;;;-3.30;99.90;;;;;;5013300;28;20921;-67
2022/12/11 00:11:45;;;;;;;11.57;5.97;;;-3.40;99.90;;;;;;5012930;28;20199;-67
2022/12/11 00:14:11;;;;;;;11.10;5.90;;;-3.40;99.90;;;;;;5013113;28;20501;-67
2022/12/11 00:16:37;;;;;;;12.10;6.67;;;-3.40;99.90;;;;;;5010352;28;20758;-67
2022/12/11 00:19:03;;;;;;;8.97;5.83;;;-3.50;99.90;;;;;;5008331;28;20454;-67
2022/12/11 00:21:28;;;;;;;15.10;7.33;;;-3.50;99.90;;;;;;5015214;28;20191;-67
2022/12/11 00:23:54;;;;;;;15.20;6.33;;;-3.50;99.90;;;;;;5012743;28;20179;-67
2022/12/11 00:26:20;;;;;;;15.50;7.20;;;-3.60;99.90;;;;;;5006729;28;20187;-67
2022/12/11 00:28:46;;;;;;;17.30;6.87;;;-3.80;99.90;;;;;;5012997;28;20171;-67
2022/12/11 00:31:18;;;;;;;11.93;7.10;;;-3.90;99.90;;;;;;5007230;28;20191;-67
2022/12/11 00:33:47;;;;;;;11.60;6.77;;;-3.90;99.90;;;;;;5011984;28;20171;-67
2022/12/11 00:36:15;;;;;;;17.90;7.80;;;-3.90;99.90;;;;;;5012372;28;20560;-67
2022/12/11 00:38:42;;;;;;;11.07;6.53;;;-4.00;99.90;;;;;;5012834;28;21006;-67
2022/12/11 00:41:08;;;;;;;17.90;8.10;;;-4.10;99.90;;;;;;5012670;28;21021;-67
2022/12/11 00:43:34;;;;;;;18.70;7.90;;;-4.10;99.90;;;;;;5012354;28;20422;-67
2022/12/11 00:45:59;;;;;;;12.77;6.20;;;-4.00;99.90;;;;;;5012442;28;20197;-67
2022/12/11 00:48:25;;;;;;;15.07;6.57;;;-4.00;99.90;;;;;;5020070;28;20175;-67
2022/12/11 00:50:50;;;;;;;12.67;5.97;;;-3.90;99.90;;;;;;5020528;28;20187;-67
2022/12/11 00:53:16;;;;;;;15.67;7.10;;;-3.90;99.90;;;;;;5011995;28;20209;-67
2022/12/11 00:55:43;;;;;;;14.80;7.60;;;-4.00;99.90;;;;;;5012550;28;20241;-67
2022/12/11 00:58:10;;;;;;;10.80;6.27;;;-4.00;99.90;;;;;;5012371;28;20183;-67
2022/12/11 01:00:36;;;;;;;16.00;7.67;;;-4.00;99.90;;;;;;4999685;28;21009;-67
2022/12/11 01:03:02;;;;;;;13.83;6.43;;;-4.00;99.90;;;;;;5011187;28;20425;-67
2022/12/11 01:05:27;;;;;;;16.27;6.27;;;-4.00;99.90;;;;;;5011870;28;20418;-67
2022/12/11 01:07:53;;;;;;;17.57;8.00;;;-3.90;99.90;;;;;;5011961;28;20205;-67
2022/12/11 01:10:25;;;;;;;21.83;8.23;;;-3.90;99.90;;;;;;5012307;28;20206;-67
2022/12/11 01:12:51;;;;;;;16.87;6.80;;;-3.80;99.90;;;;;;5011939;28;20650;-67
2022/12/11 01:15:18;;;;;;;15.30;7.17;;;-3.70;99.90;;;;;;5012060;28;20513;-67
2022/12/11 01:17:44;;;;;;;16.23;6.60;;;-3.70;99.90;;;;;;5011288;28;20482;-67
2022/12/11 01:20:10;;;;;;;17.63;7.60;;;-3.60;99.90;;;;;;5022620;28;20492;-67
2022/12/11 01:22:36;;;;;;;15.93;7.23;;;-3.50;99.90;;;;;;5016346;28;20207;-67
2022/12/11 01:25:02;;;;;;;14.60;7.90;;;-3.40;99.90;;;;;;5011966;28;20902;-67
2022/12/11 01:27:27;;;;;;;10.60;6.10;;;-3.50;99.90;;;;;;5011833;28;20195;-67
2022/12/11 01:29:53;;;;;;;16.20;7.17;;;-3.40;99.90;;;;;;5011764;28;20422;-67
2022/12/11 01:32:18;;;;;;;16.33;6.70;;;-3.40;99.90;;;;;;5011159;28;20191;-67
2022/12/11 01:34:44;;;;;;;15.73;6.27;;;-3.30;99.90;;;;;;5011324;28;20778;-67
2022/12/11 01:37:09;;;;;;;9.40;5.90;;;-3.30;99.90;;;;;;5011227;28;20202;-67
2022/12/11 01:39:37;;;;;;;23.63;6.23;;;-3.30;99.90;;;;;;5011824;28;20183;-67
2022/12/11 01:42:03;;;;;;;11.27;6.60;;;-3.20;99.90;;;;;;5011398;28;20202;-67
2022/12/11 01:44:28;;;;;;;13.47;5.97;;;-3.20;99.90;;;;;;5011611;28;20425;-67
2022/12/11 01:46:54;;;;;;;13.70;5.57;;;-3.20;99.90;;;;;;5011093;28;20578;-68
2022/12/11 01:49:24;;;;;;;12.60;5.47;;;-3.10;99.90;;;;;;5021888;28;20195;-67
2022/12/11 01:51:54;;;;;;;14.93;5.77;;;-3.10;99.90;;;;;;5012632;28;20230;-67
2022/12/11 01:54:22;;;;;;;10.67;5.03;;;-3.00;99.90;;;;;;5020706;28;20429;-67
2022/12/11 01:56:50;;;;;;;11.43;5.00;;;-2.90;99.90;;;;;;5014442;28;20437;-67
2022/12/11 01:59:20;;;;;;;11.50;4.40;;;-2.90;99.90;;;;;;5010960;28;20807;-67
2022/12/11 02:01:53;;;;;;;12.10;5.70;;;-2.80;99.90;;;;;;5010170;28;20914;-67
2022/12/11 02:04:20;;;;;;;9.80;4.37;;;-2.80;99.90;;;;;;5010316;28;20422;-67
2022/12/11 02:06:48;;;;;;;13.63;5.77;;;-2.70;99.90;;;;;;5010955;28;20434;-67
2022/12/11 02:09:17;;;;;;;14.57;5.90;;;-2.70;99.90;;;;;;5011305;28;20473;-67
2022/12/11 02:12:10;;;;;;;14.23;5.80;;;-2.70;99.90;;;;;;5010710;28;20509;-67
2022/12/11 02:14:59;;;;;;;8.57;5.30;;;-2.60;99.90;;;;;;5010827;28;20507;-67
2022/12/11 02:17:45;;;;;;;16.77;6.73;;;-2.60;99.90;;;;;;5010675;28;20453;-68
2022/12/11 02:20:17;;;;;;;12.03;4.83;;;-2.60;99.90;;;;;;5021156;28;20459;-67
2022/12/11 02:22:45;;;;;;;19.27;7.60;;;-2.50;99.90;;;;;;5009915;28;21033;-67
2022/12/11 02:25:59;;;;;;;20.23;9.57;;;-2.50;99.90;;;;;;5010821;28;20429;-67
2022/12/11 02:28:49;;;;;;;20.70;9.40;;;-2.50;99.90;;;;;;4998450;28;20426;-67
2022/12/11 02:31:31;;;;;;;12.40;6.40;;;-2.50;99.90;;;;;;5010674;28;20488;-67
2022/12/11 02:34:21;;;;;;;15.60;6.70;;;-2.40;99.90;;;;;;5009954;28;20426;-67
2022/12/11 02:36:51;;;;;;;14.50;7.23;;;-2.40;99.90;;;;;;5010780;28;20421;-67
2022/12/11 02:39:19;;;;;;;14.70;6.70;;;-2.40;99.90;;;;;;5010647;28;20430;-68
2022/12/11 02:41:49;;;;;;;18.00;6.63;;;-2.40;99.90;;;;;;5010440;28;20942;-67
2022/12/11 02:44:18;;;;;;;10.43;5.33;;;-2.40;99.90;;;;;;5020480;28;20425;-67
2022/12/11 02:46:44;;;;;;;16.17;7.00;;;-2.40;99.90;;;;;;5010897;28;20456;-68
2022/12/11 02:49:12;;;;;;;16.10;8.30;;;-2.30;99.90;;;;;;5019563;28;20569;-67
2022/12/11 02:51:40;;;;;;;15.30;7.43;;;-2.30;99.90;;;;;;5016944;28;20425;-67
2022/12/11 02:54:12;;;;;;;18.93;6.07;;;-2.40;99.90;;;;;;5010363;28;20472;-67
2022/12/11 02:56:44;;;;;;;13.27;6.70;;;-2.40;99.90;;;;;;5010793;28;20779;-67
2022/12/11 02:59:16;;;;;;;12.87;5.90;;;-2.50;99.90;;;;;;5010664;28;20859;-67
2022/12/11 03:01:42;;;;;;;11.93;5.10;;;-2.50;99.90;;;;;;5009845;28;20458;-67
2022/12/11 03:04:08;;;;;;;10.87;5.70;;;-2.50;99.90;;;;;;5012656;28;20433;-67
2022/12/11 03:06:44;;;;;;;16.57;6.43;;;-2.50;99.90;;;;;;5010273;28;20194;-67
2022/12/11 03:09:10;;;;;;;12.90;5.23;;;-2.50;99.90;;;;;;5010413;28;20433;-67
2022/12/11 03:11:35;;;;;;;11.10;6.70;;;-2.60;99.90;;;;;;5010259;28;20425;-67
2022/12/11 03:14:01;;;;;;;7.30;4.30;;;-2.70;99.90;;;;;;5010576;28;20179;-67
2022/12/11 03:16:35;;;;;;;13.93;7.37;;;-2.70;99.90;;;;;;5010344;28;20194;-66
2022/12/11 03:19:17;;;;;;;13.90;5.50;;;-2.80;99.90;;;;;;5014631;28;20465;-66
2022/12/11 03:21:46;;;;;;;8.80;5.83;;;-2.80;99.90;;;;;;5011387;28;20460;-67
2022/12/11 03:24:19;;;;;;;10.40;5.43;;;-2.80;99.90;;;;;;5010191;28;20426;-66
2022/12/11 03:26:53;;;;;;;12.40;5.90;;;-2.80;99.90;;;;;;5010809;28;20498;-67
2022/12/11 03:29:27;;;;;;;11.37;4.60;;;-2.80;99.90;;;;;;5010469;28;20483;-67
2022/12/11 03:32:18;;;;;;;9.37;5.30;;;-2.80;99.90;;;;;;5010071;28;20422;-67
2022/12/11 03:35:01;;;;;;;12.50;5.10;;;-2.90;99.90;;;;;;4999558;28;20417;-67
2022/12/11 03:37:32;;;;;;;7.20;4.27;;;-2.90;99.90;;;;;;5010046;28;20472;-67
2022/12/11 03:40:03;;;;;;;1.00;0.40;;;-2.90;99.90;;;;;;5010929;28;20422;-66
2022/12/11 03:42:30;;;;;;;2.93;1.90;;;-2.90;99.90;;;;;;5013804;28;20418;-66
2022/12/11 03:44:57;;;;;;;9.57;5.27;;;-2.90;99.90;;;;;;5014117;28;20879;-67
2022/12/11 03:47:25;;;;;;;1.10;0.50;;;-2.90;99.90;;;;;;5017093;28;20437;-67
2022/12/11 03:49:52;;;;;;;11.17;5.90;;;-3.00;99.90;;;;;;5024766;28;20436;-67
2022/12/11 03:52:19;;;;;;;12.60;5.90;;;-3.00;99.90;;;;;;5012082;28;20465;-67
2022/12/11 03:54:49;;;;;;;16.27;7.00;;;-2.90;99.90;;;;;;5018965;28;20483;-67
2022/12/11 03:57:21;;;;;;;14.03;5.13;;;-2.90;99.90;;;;;;5025277;28;20481;-67
2022/12/11 03:59:48;;;;;;;1.30;0.50;;;-2.90;99.90;;;;;;5013498;28;20418;-67
2022/12/11 04:02:14;;;;;;;12.13;4.97;;;-2.90;99.90;;;;;;5013397;28;20831;-67
2022/12/11 04:04:40;;;;;;;14.33;6.67;;;-2.90;99.90;;;;;;5012247;28;20460;-67
2022/12/11 04:07:07;;;;;;;12.20;5.57;;;-2.80;99.90;;;;;;5013502;28;20186;-67
2022/12/11 04:09:33;;;;;;;14.17;5.70;;;-2.80;99.90;;;;;;5013269;28;20465;-67
2022/12/11 04:11:59;;;;;;;10.90;5.20;;;-2.80;99.90;;;;;;5013255;28;20488;-67
2022/12/11 04:17:09;;;;;;;11.50;4.97;;;-2.70;99.90;;;;;;5013407;28;20933;-67
2022/12/11 04:25:05;;;;;;;11.70;5.90;;;-2.60;99.90;;;;;;5004196;28;20549;-67
2022/12/11 04:27:50;;;;;;;10.00;4.20;;;-2.60;99.90;;;;;;5013267;28;20449;-67
2022/12/11 04:30:19;;;;;;;10.07;4.27;;;-2.50;99.90;;;;;;5013408;28;20767;-67
2022/12/11 04:32:45;;;;;;;11.30;5.67;;;-2.60;99.90;;;;;;5012921;28;20866;-67
2022/12/11 04:35:11;;;;;;;12.53;5.93;;;-2.60;99.90;;;;;;4994931;28;20441;-67
2022/12/11 04:37:37;;;;;;;10.50;5.77;;;-2.60;99.90;;;;;;5012777;28;20191;-67
2022/12/11 04:40:05;;;;;;;9.07;5.50;;;-2.60;99.90;;;;;;5012874;28;20540;-67
2022/12/11 04:42:30;;;;;;;2.57;1.60;;;-2.60;99.90;;;;;;5012427;28;20939;-67
2022/12/11 04:44:56;;;;;;;10.23;4.80;;;-2.60;99.90;;;;;;5012503;28;20509;-67
2022/12/11 04:47:22;;;;;;;11.70;5.63;;;-2.60;99.90;;;;;;5016020;28;20257;-67
2022/12/11 04:49:47;;;;;;;12.53;6.00;;;-2.50;99.90;;;;;;5017307;28;20182;-67
2022/12/11 04:52:13;;;;;;;8.30;4.80;;;-2.50;99.90;;;;;;5010729;28;20231;-67
2022/12/11 04:54:38;;;;;;;10.90;5.20;;;-2.50;99.90;;;;;;5012686;28;20190;-67
2022/12/11 04:57:04;;;;;;;8.67;4.90;;;-2.50;99.90;;;;;;5012500;28;20581;-67
2022/12/11 04:59:31;;;;;;;8.80;4.70;;;-2.60;99.90;;;;;;5012585;28;20543;-67
2022/12/11 05:01:57;;;;;;;1.80;0.90;;;-2.60;99.90;;;;;;5012211;28;20203;-67
2022/12/11 05:04:23;;;;;;;12.70;6.33;;;-2.60;99.90;;;;;;5012108;28;20750;-67
2022/12/11 05:06:49;;;;;;;1.00;0.50;;;-2.60;99.90;;;;;;5012152;28;20190;-67
2022/12/11 05:09:15;;;;;;;15.63;6.43;;;-2.60;99.90;;;;;;5012626;28;20191;-67
2022/12/11 05:11:41;;;;;;;8.07;4.43;;;-2.60;99.90;;;;;;5011568;28;20525;-67
2022/12/11 05:14:06;;;;;;;9.23;5.10;;;-2.50;99.90;;;;;;5012459;28;20505;-67
2022/12/11 05:16:32;;;;;;;16.93;6.50;;;-2.50;99.90;;;;;;5012368;28;20232;-67
2022/12/11 05:18:58;;;;;;;11.90;5.70;;;-2.40;99.90;;;;;;5016690;28;20213;-67
2022/12/11 05:21:23;;;;;;;9.90;5.13;;;-2.40;99.90;;;;;;5017015;28;20210;-67
2022/12/11 05:23:50;;;;;;;11.90;6.07;;;-2.40;99.90;;;;;;5011717;28;20918;-67
2022/12/11 05:26:18;;;;;;;15.83;6.50;;;-2.40;99.90;;;;;;5012236;28;20245;-67
2022/12/11 05:28:44;;;;;;;9.50;4.67;;;-2.40;99.90;;;;;;5012136;28;20886;-67
2022/12/11 05:31:16;;;;;;;13.30;5.70;;;-2.40;99.90;;;;;;5011979;28;20430;-67
2022/12/11 05:33:42;;;;;;;1.10;0.43;;;-2.40;99.90;;;;;;5011770;28;20457;-67
2022/12/11 05:36:12;;;;;;;1.10;0.50;;;-2.40;99.90;;;;;;5012348;28;20441;-67
2022/12/11 05:38:38;;;;;;;18.47;6.13;;;-2.40;99.90;;;;;;5012531;28;20576;-67
2022/12/11 05:41:05;;;;;;;12.73;6.13;;;-2.40;99.90;;;;;;5012428;28;21022;-67
2022/12/11 05:43:33;;;;;;;11.07;5.30;;;-2.50;99.90;;;;;;5012098;28;20325;-67
2022/12/11 05:46:15;;;;;;;15.20;6.03;;;-2.50;99.90;;;;;;5011613;28;20525;-67
2022/12/11 05:48:42;;;;;;;15.93;6.70;;;-2.60;99.90;;;;;;5010409;28;20430;-67
2022/12/11 05:51:07;;;;;;;16.93;2.60;;;-2.60;99.90;;;;;;5009859;28;20422;-67
2022/12/11 05:53:34;;;;;;;8.97;5.50;;;-2.70;99.90;;;;;;5008037;28;21130;-67
2022/12/11 05:56:09;;;;;;;15.03;6.60;;;-2.80;99.90;;;;;;5024226;28;20517;-67
2022/12/11 05:58:35;;;;;;;16.43;7.10;;;-2.90;99.90;;;;;;5013930;28;20504;-67
2022/12/11 06:01:05;;;;;;;12.37;5.10;;;-2.90;99.90;;;;;;5011311;28;20565;-67
2022/12/11 06:03:31;;;;;;;14.93;6.20;;;-3.00;99.90;;;;;;5009877;28;20278;-67
2022/12/11 06:06:00;;;;;;;15.57;6.20;;;-3.10;99.90;;;;;;5011953;28;20864;-67
2022/12/11 06:08:25;;;;;;;13.07;6.07;;;-3.10;99.90;;;;;;5011763;28;20187;-67
2022/12/11 06:10:51;;;;;;;15.03;7.37;;;-3.10;99.90;;;;;;5012357;28;20426;-67
2022/12/11 06:13:17;;;;;;;13.27;6.63;;;-3.10;99.90;;;;;;5011244;28;20728;-67
2022/12/11 06:15:42;;;;;;;1.10;0.40;;;-3.20;99.90;;;;;;5011927;28;20278;-67
2022/12/11 06:18:08;;;;;;;1.10;0.47;;;-3.20;99.90;;;;;;5012610;28;20536;-67
2022/12/11 06:20:34;;;;;;;10.17;4.97;;;-3.20;99.90;;;;;;5025343;28;20557;-67
2022/12/11 06:23:01;;;;;;;18.13;8.27;;;-3.20;99.90;;;;;;5013310;28;20194;-67
2022/12/11 06:25:27;;;;;;;19.80;7.43;;;-3.30;99.90;;;;;;5012012;28;20675;-67
2022/12/11 06:27:53;;;;;;;12.23;6.23;;;-3.30;99.90;;;;;;5011716;28;20454;-67
2022/12/11 06:30:19;;;;;;;12.33;7.10;;;-3.30;99.90;;;;;;5011951;28;20450;-67
2022/12/11 06:32:44;;;;;;;15.13;6.53;;;-3.40;99.90;;;;;;5011008;28;20183;-67
2022/12/11 06:35:10;;;;;;;13.73;5.40;;;-3.40;99.90;;;;;;5010719;28;20862;-67
2022/12/11 06:37:37;;;;;;;16.50;6.80;;;-3.30;99.90;;;;;;5010621;28;20514;-68
2022/12/11 06:40:08;;;;;;;7.60;4.80;;;-3.40;99.90;;;;;;5011255;28;20429;-68
2022/12/11 06:42:34;;;;;;;23.40;7.03;;;-3.40;99.90;;;;;;5010616;28;20768;-67
2022/12/11 06:44:59;;;;;;;13.87;7.10;;;-3.50;99.90;;;;;;5010935;28;20959;-68
2022/12/11 06:47:26;;;;;;;17.47;8.07;;;-3.60;99.90;;;;;;5010961;28;20195;-68
2022/12/11 06:49:52;;;;;;;10.60;6.50;;;-3.70;99.90;;;;;;5010871;28;20179;-68
2022/12/11 06:52:18;;;;;;;14.50;6.93;;;-3.80;99.90;;;;;;5010177;28;20429;-68
2022/12/11 06:54:44;;;;;;;16.60;7.50;;;-3.80;99.90;;;;;;5011158;28;20461;-68
2022/12/11 06:57:10;;;;;;;20.03;7.53;;;-3.90;99.90;;;;;;5011076;28;20430;-68
2022/12/11 06:59:35;;;;;;;14.50;6.63;;;-4.00;99.90;;;;;;5010774;28;20221;-68
2022/12/11 07:02:01;;;;;;;15.50;7.10;;;-4.00;99.90;;;;;;5010303;28;20647;-68
2022/12/11 07:04:27;;;;;;;17.40;8.20;;;-4.00;99.90;;;;;;5010497;28;20191;-68
2022/12/11 07:06:52;;;;;;;21.27;7.10;;;-4.00;99.90;;;;;;5010439;28;20191;-68
2022/12/11 07:09:18;;;;;;;27.93;9.73;;;-3.90;99.90;;;;;;5010840;28;20187;-68
2022/12/11 07:11:44;;;;;;;19.17;8.17;;;-3.90;99.90;;;;;;5010305;28;20659;-67
2022/12/11 07:14:10;;;;;;;17.40;8.80;;;-3.90;99.90;;;;;;5010587;28;20194;-68
2022/12/11 07:16:35;;;;;;;17.27;7.43;;;-3.90;99.90;;;;;;5013373;28;20194;-68
2022/12/11 07:19:01;;;;;;;15.90;7.20;;;-3.90;99.90;;;;;;5018690;28;20202;-68
2022/12/11 07:21:27;;;;;;;18.90;7.53;;;-3.90;99.90;;;;;;5025187;28;20719;-68
2022/12/11 07:23:52;;;;;;;20.53;8.07;;;-3.90;99.90;;;;;;5014150;28;20222;-68
2022/12/11 07:26:21;;;;;;;15.83;7.83;;;-3.80;99.90;;;;;;5014488;28;20183;-68
2022/12/11 07:28:46;;;;;;;19.67;9.87;;;-3.80;99.90;;;;;;5014145;28;20182;-67
2022/12/11 07:31:15;;;;;;;22.63;8.40;;;-3.70;99.90;;;;;;5014102;28;20774;-67
2022/12/11 07:33:41;;;;;;;19.10;8.73;;;-3.70;99.90;;;;;;5013150;28;20191;-68
2022/12/11 07:36:09;;;;;;;19.83;9.43;;;-3.60;99.90;;;;;;5014502;28;20937;-68
2022/12/11 07:38:35;;;;;;;19.47;9.00;;;-3.50;99.90;;;;;;5014018;28;20429;-68
2022/12/11 07:41:05;;;;;;;15.80;8.07;;;-3.40;99.90;;;;;;5014261;28;20465;-68
2022/12/11 07:43:32;;;;;;;23.67;7.80;;;-3.40;99.90;;;;;;5013457;28;20813;-68
2022/12/11 07:46:03;;;;;;;15.43;8.07;;;-3.40;99.90;;;;;;5013878;28;20768;-68
2022/12/11 07:48:29;;;;;;;15.07;7.43;;;-3.40;99.90;;;;;;5021179;28;20422;-67
2022/12/11 07:50:54;;;;;;;13.20;7.63;;;-3.40;99.90;;;;;;5022294;28;20480;-68
2022/12/11 07:53:20;;;;;;;14.20;6.93;;;-3.40;99.90;;;;;;5013139;28;20179;-68
2022/12/11 07:55:45;;;;;;;14.07;8.07;;;-3.50;99.90;;;;;;5006293;28;20214;-68
2022/12/11 07:58:11;;;;;;;12.07;6.33;;;-3.50;99.90;;;;;;5017035;28;20179;-68
2022/12/11 08:00:37;;;;;;;12.43;7.60;;;-3.50;99.90;;;;;;5013014;28;20688;-67
2022/12/11 08:03:02;;;;;;;16.93;8.90;;;-3.50;99.90;;;;;;5012884;28;20253;-68
2022/12/11 08:05:28;;;;;;;13.80;6.27;;;-3.40;99.90;;;;;;5012979;28;20233;-67
2022/12/11 08:07:54;;;;;;;3.27;1.90;;;-3.40;99.90;;;;;;5013223;28;20560;-68
2022/12/11 08:10:20;;;;;;;19.60;9.50;;;-3.30;99.90;;;;;;5000673;28;20184;-67
2022/12/11 08:12:45;;;;;;;24.63;9.00;;;-3.30;99.90;;;;;;5013113;28;20418;-68
2022/12/11 08:15:11;;;;;;;21.83;7.77;;;-3.20;99.90;;;;;;5003629;28;20191;-68
2022/12/11 08:17:36;;;;;;;15.90;7.37;;;-3.10;99.90;;;;;;5013328;28;20278;-68
2022/12/11 08:20:02;;;;;;;25.90;9.80;;;-3.10;99.90;;;;;;5023673;28;20185;-68
2022/12/11 08:22:28;;;;;;;2.23;2.03;;;-3.00;99.90;;;;;;5012948;28;20222;-68
2022/12/11 08:24:53;;;;;;;18.17;7.10;;;-2.90;99.90;;;;;;5013356;28;20418;-68
2022/12/11 08:27:19;;;;;;;37.10;8.90;;;-2.80;99.90;;;;;;5013261;28;20206;-68
2022/12/11 08:29:46;;;;;;;14.83;7.17;;;-2.70;99.90;;;;;;5013179;28;20179;-67
2022/12/11 08:32:12;;;;;;;1.73;0.87;;;-2.50;99.90;;;;;;5012669;28;20266;-67
2022/12/11 08:34:39;;;;;;;15.20;8.03;;;-2.30;99.90;;;;;;5012706;28;20477;-68
2022/12/11 08:37:04;;;;;;;16.40;7.63;;;-2.20;99.90;;;;;;5012873;28;20433;-67
2022/12/11 08:39:30;;;;;;;16.53;7.10;;;-2.10;99.90;;;;;;5012556;28;20422;-67
2022/12/11 08:41:56;;;;;;;21.17;8.57;;;-2.00;99.90;;;;;;5012456;28;20206;-67
2022/12/11 08:44:23;;;;;;;22.53;7.60;;;-1.80;99.90;;;;;;5012739;28;20186;-67
2022/12/11 08:46:49;;;;;;;15.87;7.07;;;-1.80;99.90;;;;;;5012388;28;20425;-68
2022/12/11 08:49:15;;;;;;;17.77;6.83;;;-1.70;99.90;;;;;;5022443;28;20775;-68
2022/12/11 08:51:40;;;;;;;13.73;5.73;;;-1.70;99.90;;;;;;5018589;28;20187;-68
2022/12/11 08:54:06;;;;;;;11.73;5.37;;;-1.70;99.90;;;;;;5012653;28;20190;-67
2022/12/11 08:56:31;;;;;;;14.87;6.17;;;-1.70;99.90;;;;;;5012853;28;20193;-68
2022/12/11 08:59:00;;;;;;;11.30;6.37;;;-1.70;99.90;;;;;;5012596;28;20541;-67
2022/12/11 09:01:27;;;;;;;11.50;6.30;;;-1.70;99.90;;;;;;5011846;28;20214;-67
2022/12/11 09:03:54;;;;;;;13.30;6.10;;;-1.70;99.90;;;;;;4999229;28;20882;-68
2022/12/11 09:06:22;;;;;;;14.47;6.13;;;-1.60;99.90;;;;;;5012624;28;20418;-67
2022/12/11 09:08:49;;;;;;;13.03;5.40;;;-1.60;99.90;;;;;;5012467;28;20418;-67
2022/12/11 09:11:19;;;;;;;14.50;6.53;;;-1.70;99.90;;;;;;5012623;28;20422;-67
2022/12/11 09:13:45;;;;;;;17.93;6.67;;;-1.70;99.90;;;;;;5011357;28;20795;-67
2022/12/11 09:16:13;;;;;;;11.53;5.60;;;-1.60;99.90;;;;;;5011500;28;20426;-63
2022/12/11 09:18:40;;;;;;;14.27;7.30;;;-1.60;99.90;;;;;;5015523;28;20440;-63
2022/12/11 09:21:12;;;;;;;11.70;6.03;;;-1.50;99.90;;;;;;5016829;28;20487;-63
2022/12/11 09:23:38;;;;;;;13.13;6.00;;;-1.40;99.90;;;;;;5010741;28;20437;-62
2022/12/11 09:26:06;;;;;;;11.73;6.60;;;-1.30;99.90;;;;;;5011233;28;20609;-63
2022/12/11 09:28:32;;;;;;;10.73;5.80;;;-1.30;99.90;;;;;;5011326;28;21194;-63
2022/12/11 09:30:58;;;;;;;14.40;5.27;;;-1.30;99.90;;;;;;5011126;28;20450;-63
2022/12/11 09:33:24;;;;;;;22.60;5.87;;;-1.30;99.90;;;;;;5010465;28;20452;-63
2022/12/11 09:35:57;;;;;;;19.50;5.80;;;-1.30;99.90;;;;;;5011321;28;20211;-67
2022/12/11 09:38:23;;;;;;;13.83;6.47;;;-1.30;99.90;;;;;;5010471;28;20202;-67
2022/12/11 09:40:48;;;;;;;12.43;5.50;;;-1.30;99.90;;;;;;5010867;28;20469;-67
2022/12/11 09:43:35;;;;;;;16.00;6.40;;;-1.30;99.90;;;;;;5010720;28;20187;-67
2022/12/11 09:46:03;;;;;;;10.40;5.70;;;-1.20;99.90;;;;;;5010949;28;20229;-67
2022/12/11 09:48:33;;;;;;;13.40;5.60;;;-1.20;99.90;;;;;;5017487;28;20425;-67
2022/12/11 09:51:07;;;;;;;1.30;0.50;;;-1.30;99.90;;;;;;5008877;28;20434;-67
2022/12/11 09:53:35;;;;;;;14.77;5.73;;;-1.30;99.90;;;;;;5010389;28;20432;-67
2022/12/11 09:56:18;;;;;;;16.47;5.97;;;-1.20;99.90;;;;;;4999785;28;20534;-68
2022/12/11 09:59:05;;;;;;;11.70;6.63;;;-1.10;99.90;;;;;;5010026;28;20457;-65
2022/12/11 10:01:54;;;;;;;11.33;5.90;;;-1.10;99.90;;;;;;5009916;28;20468;-70
2022/12/11 10:04:29;;;;;;;14.50;6.90;;;-1.10;99.90;;;;;;5010439;28;20521;-68
2022/12/11 10:07:06;;;;;;;8.37;5.40;;;-1.00;99.90;;;;;;4992009;28;20863;-68
2022/12/11 10:09:51;;;;;;;26.20;8.00;;;-0.90;99.90;;;;;;5010757;28;20472;-68
2022/12/11 10:12:47;;;;;;;14.90;6.63;;;-0.90;99.90;;;;;;5010272;28;20972;-68
2022/12/11 10:15:13;;;;;;;11.37;6.07;;;-1.00;99.90;;;;;;5007179;28;20521;-68
2022/12/11 10:17:40;;;;;;;12.17;7.00;;;-0.90;99.90;;;;;;5008958;28;20528;-68
2022/12/11 10:20:23;;;;;;;19.07;6.03;;;-0.80;99.90;;;;;;5019270;28;20182;-68
2022/12/11 10:22:50;;;;;;;11.13;5.90;;;-0.80;99.90;;;;;;5017968;28;20422;-68
2022/12/11 10:25:27;;;;;;;13.73;7.90;;;-0.90;99.90;;;;;;5003622;28;21119;-68
2022/12/11 10:27:54;;;;;;;13.77;6.90;;;-0.80;99.90;;;;;;5009921;28;20922;-69
2022/12/11 10:30:27;;;;;;;13.03;5.57;;;-0.80;99.90;;;;;;5009791;28;20422;-68
2022/12/11 10:33:17;;;;;;;10.40;5.90;;;-0.80;99.90;;;;;;5003441;28;20423;-69
2022/12/11 10:35:52;;;;;;;9.17;5.10;;;-0.70;99.90;;;;;;5009348;28;20421;-69
2022/12/11 10:38:33;;;;;;;15.73;5.53;;;-0.60;99.90;;;;;;5009551;28;20716;-68
2022/12/11 10:41:04;;;;;;;12.53;5.90;;;-0.60;99.90;;;;;;5009820;28;20519;-68
2022/12/11 10:43:36;;;;;;;12.27;5.87;;;-0.60;99.90;;;;;;5009458;28;20454;-68
2022/12/11 10:46:02;;;;;;;10.83;6.67;;;-0.70;99.90;;;;;;5009898;28;20422;-68
2022/12/11 10:48:28;;;;;;;13.57;6.70;;;-0.70;99.90;;;;;;5005254;28;20748;-68
2022/12/11 10:51:06;;;;;;;11.43;5.63;;;-0.70;99.90;;;;;;5013071;28;20433;-68
2022/12/11 10:53:32;;;;;;;15.17;7.10;;;-0.60;99.90;;;;;;5013011;28;20244;-68
2022/12/11 10:55:59;;;;;;;7.70;5.13;;;-0.60;99.90;;;;;;5013451;28;20930;-67
2022/12/11 10:58:32;;;;;;;14.27;6.03;;;-0.60;99.90;;;;;;5013635;28;20936;-68
2022/12/11 11:01:15;;;;;;;14.17;5.93;;;-0.50;99.90;;;;;;5013368;28;20833;-68
2022/12/11 11:04:12;;;;;;;14.07;5.23;;;-0.50;99.90;;;;;;5012583;28;20464;-67
2022/12/11 11:06:38;;;;;;;8.70;5.17;;;-0.60;99.90;;;;;;5013604;28;20414;-67
2022/12/11 11:09:21;;;;;;;11.60;5.67;;;-0.50;99.90;;;;;;5008983;28;20415;-67
2022/12/11 11:11:49;;;;;;;10.47;5.23;;;-0.50;99.90;;;;;;5007454;28;20241;-67
2022/12/11 11:14:18;;;;;;;14.70;5.57;;;-0.40;99.90;;;;;;5013135;28;20425;-68
2022/12/11 11:16:47;;;;;;;13.43;5.83;;;-0.40;99.90;;;;;;5012828;28;20428;-68
2022/12/11 11:19:32;;;;;;;10.80;5.53;;;-0.30;99.90;;;;;;5015535;28;20444;-67
2022/12/11 11:22:13;;;;;;;13.17;5.47;;;-0.20;99.90;;;;;;5020746;28;20912;-68
2022/12/11 11:24:44;;;;;;;14.80;7.17;;;-0.30;99.90;;;;;;5016422;28;20511;-67
2022/12/11 11:27:20;;;;;;;16.93;5.80;;;-0.30;99.90;;;;;;5021084;28;20425;-68
2022/12/11 11:29:45;;;;;;;14.10;6.40;;;-0.20;99.90;;;;;;5013365;28;20803;-68
2022/12/11 11:32:32;;;;;;;11.10;5.90;;;-0.20;99.90;;;;;;5012548;28;20430;-68
2022/12/11 11:35:12;;;;;;;8.83;4.70;;;-0.10;99.90;;;;;;5012325;28;20479;-68
2022/12/11 11:37:40;;;;;;;10.87;6.07;;;-0.10;99.90;;;;;;5012419;28;20426;-67
2022/12/11 11:40:18;;;;;;;11.83;5.57;;;-0.10;99.90;;;;;;5012812;28;20441;-68
2022/12/11 11:43:08;;;;;;;13.93;6.20;;;0.00;99.90;;;;;;5012030;28;20509;-68
2022/12/11 11:45:56;;;;;;;11.60;4.90;;;0.10;99.90;;;;;;5005707;28;20410;-68
2022/12/11 11:48:45;;;;;;;9.97;4.50;;;0.00;99.90;;;;;;5002658;28;20422;-66
2022/12/11 11:51:33;;;;;;;8.83;5.00;;;0.00;99.90;;;;;;5009844;28;20950;-66
2022/12/11 11:54:02;;;;;;;9.13;5.20;;;-0.10;99.90;;;;;;5012157;28;20425;-66
2022/12/11 11:56:36;;;;;;;11.80;5.67;;;0.00;99.90;;;;;;5012395;28;20422;-67
2022/12/11 11:59:02;;;;;;;11.40;5.67;;;0.00;99.90;;;;;;5010875;28;20454;-67
2022/12/11 12:01:28;;;;;;;13.67;5.10;;;0.00;99.90;;;;;;5009573;28;20587;-66
2022/12/11 12:03:55;;;;;;;9.60;5.50;;;0.10;99.90;;;;;;5010857;28;20706;-67
2022/12/11 12:06:35;;;;;;;12.87;5.83;;;0.10;99.90;;;;;;5018953;28;20421;-67
2022/12/11 12:09:20;;;;;;;14.80;6.47;;;0.00;99.90;;;;;;5008624;28;20749;-67
2022/12/11 12:12:09;;;;;;;10.13;4.90;;;-0.10;99.90;;;;;;5012008;28;20480;-66
2022/12/11 12:14:57;;;;;;;11.30;6.13;;;-0.20;99.90;;;;;;5005899;28;20437;-66
2022/12/11 12:17:51;;;;;;;8.80;4.90;;;-0.30;99.90;;;;;;5015600;28;20425;-67
2022/12/11 12:20:33;;;;;;;10.13;4.87;;;-0.20;99.90;;;;;;5015761;28;20459;-66
2022/12/11 12:23:24;;;;;;;13.17;6.07;;;-0.10;99.90;;;;;;5010264;28;20429;-67
2022/12/11 12:25:58;;;;;;;11.97;5.07;;;0.00;99.90;;;;;;5005829;28;20521;-67
2022/12/11 12:28:26;;;;;;;1.27;0.70;;;0.00;99.90;;;;;;5015227;28;20497;-67
2022/12/11 12:30:55;;;;;;;13.10;6.13;;;0.00;99.90;;;;;;5010700;28;20418;-67
2022/12/11 12:33:30;;;;;;;13.40;5.33;;;-0.10;99.90;;;;;;5009977;28;20975;-67
2022/12/11 12:36:21;;;;;;;13.70;5.50;;;-0.10;99.90;;;;;;5010251;28;20491;-67
2022/12/11 12:38:56;;;;;;;12.63;5.23;;;0.00;99.90;;;;;;5010668;28;20529;-66
2022/12/11 12:41:42;;;;;;;14.90;5.90;;;0.10;99.90;;;;;;5011214;28;20465;-66
2022/12/11 12:44:21;;;;;;;10.13;4.60;;;0.10;99.90;;;;;;5001416;28;20406;-67
2022/12/11 12:47:06;;;;;;;12.10;6.07;;;0.10;99.90;;;;;;5010481;28;20418;-67
2022/12/11 12:49:35;;;;;;;8.63;4.90;;;0.20;99.90;;;;;;5010633;28;20477;-66
2022/12/11 12:52:03;;;;;;;14.30;6.50;;;0.10;99.90;;;;;;5011010;28;20430;-66
2022/12/11 12:54:32;;;;;;;18.73;8.47;;;0.00;99.90;;;;;;5011124;28;20422;-66
2022/12/11 12:57:00;;;;;;;16.67;6.13;;;0.00;99.90;;;;;;5010085;28;20424;-67
2022/12/11 12:59:27;;;;;;;12.83;6.50;;;0.10;99.90;;;;;;5011171;28;20426;-67
2022/12/11 13:01:57;;;;;;;12.17;6.10;;;0.10;99.90;;;;;;5010723;28;20573;-67